createdAt,value
2023-04-18T00:01:15.012Z,12.66
2023-04-18T00:04:18.512Z,12.52
2023-04-18T00:07:21.697Z,12.45
2023-04-18T00:10:24.238Z,12.43
2023-04-18T00:13:28.378Z,12.44
2023-04-18T00:16:33.034Z,12.37
2023-04-18T00:19:36.569Z,12.28
2023-04-18T00:22:46.458Z,12.33
2023-04-18T00:25:48.946Z,12.36
2023-04-18T00:28:51.418Z,12.28
2023-04-18T00:31:53.633Z,12.31
2023-04-18T00:34:56.727Z,12.26
2023-04-18T00:37:58.846Z,12.23
2023-04-18T00:41:01.292Z,12.23
2023-04-18T00:44:03.535Z,12.32
2023-04-18T00:47:06.009Z,12.28
2023-04-18T00:50:09.952Z,12.20
2023-04-18T00:53:13.474Z,12.35
2023-04-18T00:56:16.152Z,12.31
2023-04-18T00:59:18.793Z,12.29
2023-04-18T01:02:21.324Z,12.33
2023-04-18T01:05:23.924Z,12.29
2023-04-18T01:08:27.762Z,12.22
2023-04-18T01:11:32.735Z,12.26
2023-04-18T01:14:34.936Z,12.20
2023-04-18T01:17:39.678Z,12.26
2023-04-18T01:20:46.560Z,12.20
2023-04-18T01:23:49.166Z,12.22
2023-04-18T01:26:51.595Z,12.18
2023-04-18T01:29:54.159Z,12.25
2023-04-18T01:32:56.388Z,12.24
2023-04-18T01:36:01.541Z,12.16
2023-04-18T01:39:06.440Z,12.18
2023-04-18T01:42:08.840Z,12.19
2023-04-18T01:45:13.251Z,12.14
2023-04-18T01:48:15.955Z,12.11
2023-04-18T01:51:18.140Z,12.20
2023-04-18T01:54:20.573Z,12.15
2023-04-18T01:57:22.848Z,12.14
2023-04-18T02:00:25.498Z,12.15
2023-04-18T02:03:27.658Z,12.11
2023-04-18T02:06:30.795Z,12.11
2023-04-18T02:09:34.543Z,12.11
2023-04-18T02:12:36.972Z,12.14
2023-04-18T02:15:39.151Z,12.15
2023-04-18T02:18:43.643Z,12.14
2023-04-18T02:21:45.906Z,12.04
2023-04-18T02:24:49.917Z,12.07
2023-04-18T02:27:52.172Z,12.06
2023-04-18T02:30:54.587Z,12.08
2023-04-18T02:33:56.748Z,12.14
2023-04-18T02:36:59.285Z,12.19
2023-04-18T02:40:01.480Z,12.16
2023-04-18T02:43:04.673Z,12.34
2023-04-18T02:46:07.297Z,12.25
2023-04-18T02:49:10.327Z,12.19
2023-04-18T02:52:12.532Z,12.23
2023-04-18T02:55:15.192Z,12.27
2023-04-18T02:58:17.996Z,12.30
2023-04-18T03:01:21.735Z,12.30
2023-04-18T03:04:24.616Z,12.28
2023-04-18T03:07:27.655Z,12.12
2023-04-18T03:10:30.685Z,12.03
2023-04-18T03:13:33.895Z,11.95
2023-04-18T03:16:36.687Z,11.88
2023-04-18T03:19:39.662Z,11.80
2023-04-18T03:22:41.999Z,11.73
2023-04-18T03:25:45.117Z,11.80
2023-04-18T03:28:47.339Z,11.77
2023-04-18T03:31:51.018Z,11.77
2023-04-18T03:34:53.266Z,11.73
2023-04-18T03:37:56.970Z,11.73
2023-04-18T03:40:59.536Z,11.69
2023-04-18T03:44:03.011Z,11.70
2023-04-18T03:47:08.042Z,11.70
2023-04-18T03:50:11.148Z,11.68
2023-04-18T03:53:14.429Z,11.72
2023-04-18T03:56:17.171Z,11.69
2023-04-18T03:59:20.164Z,11.71
2023-04-18T04:02:23.710Z,11.73
2023-04-18T04:05:26.448Z,11.74
2023-04-18T04:08:28.671Z,11.75
2023-04-18T04:11:31.576Z,11.76
2023-04-18T04:14:33.982Z,11.72
2023-04-18T04:17:36.937Z,11.73
2023-04-18T04:20:39.163Z,11.57
2023-04-18T04:23:42.893Z,11.53
2023-04-18T04:26:46.781Z,11.54
2023-04-18T04:29:49.474Z,11.62
2023-04-18T04:32:53.589Z,11.63
2023-04-18T04:35:56.623Z,11.58
2023-04-18T04:39:04.579Z,11.57
2023-04-18T04:42:09.606Z,11.55
2023-04-18T04:45:13.796Z,11.60
2023-04-18T04:48:16.712Z,11.58
2023-04-18T04:51:18.897Z,11.56
2023-04-18T04:54:21.462Z,11.54
2023-04-18T04:57:23.917Z,11.65
2023-04-18T05:00:26.945Z,11.63
2023-04-18T05:03:29.190Z,11.61
2023-04-18T05:06:32.853Z,11.59
2023-04-18T05:09:35.092Z,11.56
2023-04-18T05:12:37.523Z,11.65
2023-04-18T05:15:40.008Z,11.55
2023-04-18T05:18:42.731Z,11.50
2023-04-18T05:21:44.869Z,11.53
2023-04-18T05:24:47.283Z,11.52
2023-04-18T05:27:50.531Z,11.47
2023-04-18T05:30:53.325Z,11.53
2023-04-18T05:33:55.794Z,11.50
2023-04-18T05:36:58.456Z,11.51
2023-04-18T05:40:01.119Z,11.53
2023-04-18T05:43:03.729Z,11.64
2023-04-18T05:46:07.000Z,11.73
2023-04-18T05:49:10.309Z,11.86
2023-04-18T05:52:12.643Z,11.95
2023-04-18T05:55:15.380Z,12.00
2023-04-18T05:58:17.548Z,12.10
2023-04-18T06:01:20.014Z,12.22
2023-04-18T06:04:22.684Z,12.28
2023-04-18T06:07:25.553Z,12.33
2023-04-18T06:10:28.061Z,12.39
2023-04-18T06:13:30.392Z,12.43
2023-04-18T06:16:33.066Z,12.54
2023-04-18T06:19:35.631Z,12.54
2023-04-18T06:22:38.096Z,12.56
2023-04-18T06:25:43.511Z,12.63
2023-04-18T06:28:46.371Z,12.74
2023-04-18T06:31:50.408Z,12.81
2023-04-18T06:34:53.101Z,12.91
2023-04-18T06:37:55.883Z,12.95
2023-04-18T06:40:58.379Z,13.06
2023-04-18T06:44:04.051Z,13.12
2023-04-18T06:47:07.355Z,13.29
2023-04-18T06:50:10.884Z,13.26
2023-04-18T06:53:14.439Z,13.35
2023-04-18T06:56:16.552Z,13.47
2023-04-18T06:59:21.338Z,13.71
2023-04-18T07:02:23.754Z,13.75
2023-04-18T07:05:26.307Z,13.95
2023-04-18T07:08:28.754Z,14.12
2023-04-18T07:11:31.337Z,14.08
2023-04-18T07:14:34.321Z,14.15
2023-04-18T07:17:37.083Z,14.12
2023-04-18T07:20:40.237Z,14.19
2023-04-18T07:23:42.852Z,14.25
2023-04-18T07:26:45.647Z,14.41
2023-04-18T07:29:48.000Z,14.47
2023-04-18T07:32:50.457Z,14.46
2023-04-18T07:35:53.055Z,14.60
2023-04-18T07:38:55.269Z,14.55
2023-04-18T07:41:57.908Z,14.56
2023-04-18T07:45:00.053Z,14.66
2023-04-18T07:48:02.616Z,14.77
2023-04-18T07:51:04.984Z,14.61
2023-04-18T07:54:07.494Z,14.69
2023-04-18T07:57:10.802Z,14.88
2023-04-18T08:00:15.754Z,14.93
2023-04-18T08:03:18.438Z,14.83
2023-04-18T08:06:21.471Z,15.07
2023-04-18T08:09:25.010Z,15.01
2023-04-18T08:12:27.250Z,15.04
2023-04-18T08:15:32.267Z,15.18
2023-04-18T08:18:35.746Z,15.83
2023-04-18T08:21:39.233Z,16.08
2023-04-18T08:24:46.424Z,16.65
2023-04-18T08:27:53.730Z,17.49
2023-04-18T08:30:56.607Z,17.99
2023-04-18T08:33:59.138Z,18.37
2023-04-18T08:37:01.392Z,18.17
2023-04-18T08:40:05.523Z,18.47
2023-04-18T08:43:12.549Z,18.15
2023-04-18T08:46:15.131Z,17.98
2023-04-18T08:49:17.786Z,18.01
2023-04-18T08:52:21.592Z,17.51
2023-04-18T08:55:23.876Z,17.99
2023-04-18T08:58:33.655Z,18.07
2023-04-18T09:01:57.287Z,19.03
2023-04-18T09:04:59.877Z,20.06
2023-04-18T09:08:21.970Z,20.49
2023-04-18T09:11:29.914Z,20.74
2023-04-18T09:14:32.651Z,21.08
2023-04-18T09:17:38.039Z,21.37
2023-04-18T09:20:42.536Z,21.49
2023-04-18T09:23:47.475Z,21.44
2023-04-18T09:26:51.291Z,20.36
2023-04-18T09:29:56.544Z,19.43
2023-04-18T09:33:01.429Z,18.91
2023-04-18T09:36:21.424Z,18.49
2023-04-18T09:39:28.408Z,18.62
2023-04-18T09:42:36.214Z,18.38
2023-04-18T09:45:39.137Z,18.67
2023-04-18T09:48:41.880Z,19.08
2023-04-18T09:51:44.800Z,19.41
2023-04-18T09:54:55.785Z,19.20
2023-04-18T09:58:00.728Z,19.06
2023-04-18T10:01:04.555Z,19.20
2023-04-18T10:04:07.974Z,19.51
2023-04-18T10:07:11.307Z,19.49
2023-04-18T10:10:14.588Z,19.47
2023-04-18T10:13:19.276Z,19.53
2023-04-18T10:16:22.079Z,19.38
2023-04-18T10:19:26.432Z,19.17
2023-04-18T10:22:29.164Z,18.82
2023-04-18T10:25:41.280Z,18.80
2023-04-18T10:28:58.010Z,18.57
2023-04-18T10:32:06.425Z,18.45
2023-04-18T10:35:10.864Z,18.34
2023-04-18T10:38:23.534Z,18.12
2023-04-18T10:41:26.187Z,18.17
2023-04-18T10:44:28.500Z,18.35
2023-04-18T10:47:31.252Z,18.35
2023-04-18T10:50:34.907Z,18.45
2023-04-18T10:53:37.375Z,18.65
2023-04-18T10:56:39.787Z,18.92
2023-04-18T10:59:44.430Z,19.04
2023-04-18T11:02:53.283Z,18.93
2023-04-18T11:06:01.804Z,18.97
2023-04-18T11:09:12.116Z,18.94
2023-04-18T11:12:14.669Z,18.86
2023-04-18T11:15:22.519Z,19.07
2023-04-18T11:18:25.483Z,19.23
2023-04-18T11:21:30.683Z,19.23
2023-04-18T11:24:34.232Z,19.25
2023-04-18T11:27:36.502Z,19.36
2023-04-18T11:30:40.919Z,19.22
2023-04-18T11:33:46.278Z,18.94
2023-04-18T11:36:52.581Z,18.81
2023-04-18T11:39:54.820Z,18.81
2023-04-18T11:43:01.361Z,18.54
2023-04-18T11:46:03.641Z,18.38
2023-04-18T11:49:06.172Z,18.24
2023-04-18T11:52:13.383Z,18.22
2023-04-18T11:55:18.652Z,18.31
2023-04-18T11:58:30.705Z,18.37
2023-04-18T12:01:35.238Z,18.51
2023-04-18T12:05:11.961Z,18.42
2023-04-18T12:08:19.685Z,18.39
2023-04-18T12:11:22.148Z,18.33
2023-04-18T12:14:24.290Z,18.25
2023-04-18T12:17:28.160Z,18.09
2023-04-18T12:20:40.306Z,18.01
2023-04-18T12:23:45.811Z,18.10
2023-04-18T12:26:48.701Z,18.26
2023-04-18T12:29:51.298Z,18.64
2023-04-18T12:32:56.958Z,18.93
2023-04-18T12:35:59.526Z,19.33
2023-04-18T12:39:02.222Z,19.62
2023-04-18T12:42:04.785Z,19.56
2023-04-18T12:45:11.592Z,19.28
2023-04-18T12:48:14.106Z,19.16
2023-04-18T12:51:16.321Z,19.08
2023-04-18T12:54:18.821Z,19.10
2023-04-18T12:57:20.998Z,19.03
2023-04-18T13:00:26.557Z,18.71
2023-04-18T13:03:28.945Z,18.60
2023-04-18T13:06:31.498Z,18.51
2023-04-18T13:09:34.039Z,18.47
2023-04-18T13:12:37.265Z,18.36
2023-04-18T13:15:39.556Z,18.41
2023-04-18T13:18:41.962Z,18.37
2023-04-18T13:21:44.245Z,18.35
2023-04-18T13:24:47.250Z,18.36
2023-04-18T13:27:52.188Z,18.51
2023-04-18T13:30:54.573Z,18.76
2023-04-18T13:33:56.743Z,18.98
2023-04-18T13:37:02.173Z,19.06
2023-04-18T13:40:06.379Z,18.96
2023-04-18T13:43:10.924Z,18.86
2023-04-18T13:46:13.096Z,18.68
2023-04-18T13:49:15.821Z,18.79
2023-04-18T13:52:18.180Z,19.10
2023-04-18T13:55:21.025Z,19.23
2023-04-18T13:58:23.177Z,19.09
2023-04-18T14:01:25.807Z,19.19
2023-04-18T14:04:28.532Z,19.04
2023-04-18T14:07:31.101Z,18.65
2023-04-18T14:10:33.593Z,18.72
2023-04-18T14:13:35.884Z,18.88
2023-04-18T14:16:38.376Z,18.99
2023-04-18T14:19:40.502Z,19.09
2023-04-18T14:22:42.915Z,19.20
2023-04-18T14:25:45.147Z,19.20
2023-04-18T14:28:47.859Z,19.30
2023-04-18T14:31:50.288Z,19.37
2023-04-18T14:34:52.772Z,19.37
2023-04-18T14:37:55.158Z,19.43
2023-04-18T14:40:58.582Z,19.54
2023-04-18T14:44:00.925Z,19.53
2023-04-18T14:47:03.445Z,19.53
2023-04-18T14:50:07.466Z,19.49
2023-04-18T14:53:11.157Z,19.51
2023-04-18T14:56:14.695Z,19.45
2023-04-18T14:59:17.305Z,19.41
2023-04-18T15:02:19.993Z,19.49
2023-04-18T15:05:23.807Z,19.28
2023-04-18T15:08:26.080Z,19.06
2023-04-18T15:11:28.485Z,19.06
2023-04-18T15:14:32.731Z,19.11
2023-04-18T15:17:35.906Z,19.15
2023-04-18T15:20:39.506Z,19.18
2023-04-18T15:23:41.975Z,19.06
2023-04-18T15:26:44.132Z,19.13
2023-04-18T15:29:46.941Z,19.05
2023-04-18T15:32:49.216Z,19.09
2023-04-18T15:35:51.691Z,19.09
2023-04-18T15:38:53.801Z,19.10
2023-04-18T15:41:56.523Z,19.06
2023-04-18T15:44:58.719Z,19.09
2023-04-18T15:48:01.175Z,19.06
2023-04-18T15:51:03.989Z,19.03
2023-04-18T15:54:06.554Z,18.93
2023-04-18T15:57:09.864Z,18.85
2023-04-18T16:00:16.284Z,18.91
2023-04-18T16:03:18.977Z,18.80
2023-04-18T16:06:24.159Z,18.52
2023-04-18T16:09:27.027Z,18.33
2023-04-18T16:12:29.323Z,18.17
2023-04-18T16:15:32.004Z,18.13
2023-04-18T16:18:34.265Z,17.99
2023-04-18T16:21:36.742Z,17.87
2023-04-18T16:24:40.453Z,17.79
2023-04-18T16:27:44.722Z,17.72
2023-04-18T16:30:47.285Z,17.70
2023-04-18T16:33:52.474Z,17.55
2023-04-18T16:36:55.642Z,17.42
2023-04-18T16:39:58.235Z,17.30
2023-04-18T16:43:01.960Z,17.20
2023-04-18T16:46:04.692Z,17.16
2023-04-18T16:49:06.976Z,17.06
2023-04-18T16:52:09.582Z,16.97
2023-04-18T16:55:11.741Z,16.89
2023-04-18T16:58:14.175Z,16.84
2023-04-18T17:01:16.426Z,16.75
2023-04-18T17:04:19.012Z,16.64
2023-04-18T17:07:21.221Z,16.53
2023-04-18T17:10:23.700Z,16.53
2023-04-18T17:13:27.241Z,16.46
2023-04-18T17:16:30.177Z,16.44
2023-04-18T17:19:32.386Z,16.30
2023-04-18T17:22:34.801Z,16.29
2023-04-18T17:25:37.011Z,16.20
2023-04-18T17:28:39.412Z,16.11
2023-04-18T17:31:41.996Z,16.00
2023-04-18T17:34:44.484Z,15.88
2023-04-18T17:37:47.883Z,15.82
2023-04-18T17:41:01.233Z,15.76
2023-04-18T17:44:04.914Z,15.73
2023-04-18T17:47:07.339Z,15.64
2023-04-18T17:50:10.104Z,15.58
2023-04-18T17:53:12.500Z,15.48
2023-04-18T17:56:14.645Z,15.42
2023-04-18T17:59:17.091Z,15.35
2023-04-18T18:02:20.128Z,15.32
2023-04-18T18:05:22.822Z,15.28
2023-04-18T18:08:25.724Z,15.23
2023-04-18T18:11:28.342Z,15.15
2023-04-18T18:14:30.654Z,15.09
2023-04-18T18:17:33.109Z,15.02
2023-04-18T18:20:35.320Z,14.92
2023-04-18T18:23:37.903Z,14.88
2023-04-18T18:26:40.153Z,14.89
2023-04-18T18:29:42.553Z,14.88
2023-04-18T18:32:44.746Z,14.86
2023-04-18T18:35:47.249Z,14.80
2023-04-18T18:38:49.422Z,14.76
2023-04-18T18:41:52.275Z,14.72
2023-04-18T18:44:54.469Z,14.67
2023-04-18T18:47:57.024Z,14.69
2023-04-18T18:50:59.301Z,14.60
2023-04-18T18:54:01.794Z,14.56
2023-04-18T18:57:04.088Z,14.53
2023-04-18T19:00:10.924Z,14.49
2023-04-18T19:03:13.356Z,14.49
2023-04-18T19:06:16.117Z,14.51
2023-04-18T19:09:18.761Z,14.44
2023-04-18T19:12:21.394Z,14.43
2023-04-18T19:15:24.430Z,14.39
2023-04-18T19:18:27.272Z,14.34
2023-04-18T19:21:29.867Z,14.35
2023-04-18T19:24:32.319Z,14.41
2023-04-18T19:27:34.448Z,14.49
2023-04-18T19:30:36.893Z,14.63
2023-04-18T19:33:39.013Z,14.77
2023-04-18T19:36:41.446Z,14.71
2023-04-18T19:39:43.608Z,14.72
2023-04-18T19:42:46.580Z,14.73
2023-04-18T19:45:50.551Z,14.74
2023-04-18T19:48:53.333Z,14.74
2023-04-18T19:51:55.486Z,14.73
2023-04-18T19:54:57.879Z,14.76
2023-04-18T19:58:00.169Z,14.69
2023-04-18T20:01:05.750Z,14.72
2023-04-18T20:04:08.427Z,14.71
2023-04-18T20:07:10.980Z,14.77
2023-04-18T20:10:13.505Z,14.72
2023-04-18T20:13:15.704Z,14.79
2023-04-18T20:16:18.243Z,14.81
2023-04-18T20:19:20.410Z,14.81
2023-04-18T20:22:25.800Z,14.79
2023-04-18T20:25:27.911Z,14.79
2023-04-18T20:28:31.491Z,14.80
2023-04-18T20:31:33.884Z,14.82
2023-04-18T20:34:36.348Z,14.81
2023-04-18T20:37:39.038Z,14.76
2023-04-18T20:40:45.016Z,14.74
2023-04-18T20:43:47.257Z,14.74
2023-04-18T20:46:49.794Z,14.73
2023-04-18T20:49:51.903Z,14.73
2023-04-18T20:52:55.178Z,14.68
2023-04-18T20:55:57.321Z,14.60
2023-04-18T20:58:59.859Z,14.50
2023-04-18T21:02:02.150Z,14.46
2023-04-18T21:05:05.103Z,14.39
2023-04-18T21:08:07.387Z,14.34
2023-04-18T21:11:09.779Z,14.24
2023-04-18T21:14:11.907Z,14.21
2023-04-18T21:17:17.277Z,14.20
2023-04-18T21:20:19.764Z,14.18
2023-04-18T21:23:25.233Z,14.12
2023-04-18T21:26:27.921Z,14.14
2023-04-18T21:29:30.320Z,14.14
2023-04-18T21:32:32.584Z,14.12
2023-04-18T21:35:35.031Z,14.13
2023-04-18T21:38:37.155Z,14.07
2023-04-18T21:41:39.626Z,14.03
2023-04-18T21:44:41.737Z,14.03
2023-04-18T21:47:44.256Z,13.97
2023-04-18T21:50:46.464Z,13.98
2023-04-18T21:53:48.925Z,13.98
2023-04-18T21:56:51.049Z,13.97
2023-04-18T21:59:55.490Z,13.93
2023-04-18T22:02:57.841Z,13.88
2023-04-18T22:06:01.472Z,13.89
2023-04-18T22:09:05.194Z,13.80
2023-04-18T22:12:08.596Z,13.82
2023-04-18T22:15:11.401Z,13.84
2023-04-18T22:18:14.562Z,13.86
2023-04-18T22:21:16.840Z,13.85
2023-04-18T22:24:19.667Z,13.77
2023-04-18T22:27:21.996Z,13.69
2023-04-18T22:30:24.591Z,13.68
2023-04-18T22:33:26.906Z,13.66
2023-04-18T22:36:29.381Z,13.62
2023-04-18T22:39:31.584Z,13.67
2023-04-18T22:42:34.893Z,13.65
2023-04-18T22:45:38.311Z,13.68
2023-04-18T22:48:40.713Z,13.71
2023-04-18T22:51:43.962Z,13.67
2023-04-18T22:54:46.455Z,13.70
2023-04-18T22:57:48.584Z,13.67
2023-04-18T23:00:51.030Z,13.65
2023-04-18T23:03:53.323Z,13.68
2023-04-18T23:06:56.249Z,13.75
2023-04-18T23:09:58.488Z,13.69
2023-04-18T23:13:01.252Z,13.71
2023-04-18T23:16:03.500Z,13.66
2023-04-18T23:19:05.982Z,13.72
2023-04-18T23:22:08.252Z,13.71
2023-04-18T23:25:10.724Z,13.69
2023-04-18T23:28:13.623Z,13.64
2023-04-18T23:31:16.173Z,13.71
2023-04-18T23:34:18.325Z,13.78
2023-04-18T23:37:20.895Z,13.78
2023-04-18T23:40:23.200Z,13.80
2023-04-18T23:43:25.645Z,13.78
2023-04-18T23:46:27.858Z,13.77
2023-04-18T23:49:30.325Z,13.74
2023-04-18T23:52:32.470Z,13.76
2023-04-18T23:55:34.908Z,13.67
2023-04-18T23:58:37.080Z,13.71
